sensor_id;sensor_type;location;lat;lon;timestamp;temperature;humidity
296;DHT22;132;48.770;9.200;2023-10-09T00:02:27;15.20;1.00
296;DHT22;132;48.770;9.200;2023-10-09T00:05:16;15.20;1.00
296;DHT22;132;48.770;9.200;2023-10-09T00:08:13;15.20;1.00
296;DHT22;132;48.770;9.200;2023-10-09T00:11:16;15.20;1.00
296;DHT22;132;48.770;9.200;2023-10-09T00:14:03;15.30;1.00
296;DHT22;132;48.770;9.200;2023-10-09T00:16:52;15.40;1.00
296;DHT22;132;48.770;9.200;2023-10-09T00:19:57;15.30;1.00
296;DHT22;132;48.770;9.200;2023-10-09T00:22:46;15.30;1.00
296;DHT22;132;48.770;9.200;2023-10-09T00:25:32;15.30;1.00
296;DHT22;132;48.770;9.200;2023-10-09T00:28:22;15.20;1.00
296;DHT22;132;48.770;9.200;2023-10-09T00:31:10;15.20;1.00
296;DHT22;132;48.770;9.200;2023-10-09T00:34:02;15.20;1.00
296;DHT22;132;48.770;9.200;2023-10-09T00:37:01;15.10;1.00
296;DHT22;132;48.770;9.200;2023-10-09T00:39:52;15.10;1.00
296;DHT22;132;48.770;9.200;2023-10-09T00:42:44;15.00;1.00
296;DHT22;132;48.770;9.200;2023-10-09T00:45:31;15.00;1.00
296;DHT22;132;48.770;9.200;2023-10-09T00:48:19;15.00;1.00
296;DHT22;132;48.770;9.200;2023-10-09T00:51:17;15.00;1.00
296;DHT22;132;48.770;9.200;2023-10-09T00:54:05;15.10;1.00
296;DHT22;132;48.770;9.200;2023-10-09T00:56:55;15.00;1.00
296;DHT22;132;48.770;9.200;2023-10-09T00:59:45;15.00;1.00
296;DHT22;132;48.770;9.200;2023-10-09T01:02:35;15.00;1.00
296;DHT22;132;48.770;9.200;2023-10-09T01:05:22;14.90;1.00
296;DHT22;132;48.770;9.200;2023-10-09T01:08:13;14.90;1.00
296;DHT22;132;48.770;9.200;2023-10-09T01:11:03;14.90;1.00
296;DHT22;132;48.770;9.200;2023-10-09T01:13:56;14.90;1.00
296;DHT22;132;48.770;9.200;2023-10-09T01:16:55;14.90;1.00
296;DHT22;132;48.770;9.200;2023-10-09T01:19:41;14.90;1.00
296;DHT22;132;48.770;9.200;2023-10-09T01:22:30;14.90;1.00
296;DHT22;132;48.770;9.200;2023-10-09T01:25:17;14.90;1.00
296;DHT22;132;48.770;9.200;2023-10-09T01:28:03;15.00;1.00
296;DHT22;132;48.770;9.200;2023-10-09T01:30:50;15.00;1.00
296;DHT22;132;48.770;9.200;2023-10-09T01:33:37;15.00;1.00
296;DHT22;132;48.770;9.200;2023-10-09T01:36:24;15.10;1.00
296;DHT22;132;48.770;9.200;2023-10-09T01:39:17;15.10;1.00
296;DHT22;132;48.770;9.200;2023-10-09T01:42:12;15.10;1.00
296;DHT22;132;48.770;9.200;2023-10-09T01:45:10;15.20;1.00
296;DHT22;132;48.770;9.200;2023-10-09T01:48:02;15.10;1.00
296;DHT22;132;48.770;9.200;2023-10-09T01:50:51;15.10;1.00
296;DHT22;132;48.770;9.200;2023-10-09T01:53:39;15.20;1.00
296;DHT22;132;48.770;9.200;2023-10-09T01:56:28;15.30;1.00
296;DHT22;132;48.770;9.200;2023-10-09T01:59:14;15.10;1.00
296;DHT22;132;48.770;9.200;2023-10-09T02:02:02;15.10;1.00
296;DHT22;132;48.770;9.200;2023-10-09T02:05:00;15.10;1.00
296;DHT22;132;48.770;9.200;2023-10-09T02:07:59;15.10;1.00
296;DHT22;132;48.770;9.200;2023-10-09T02:10:50;15.20;1.00
296;DHT22;132;48.770;9.200;2023-10-09T02:13:41;15.10;1.00
296;DHT22;132;48.770;9.200;2023-10-09T02:16:29;15.10;1.00
296;DHT22;132;48.770;9.200;2023-10-09T02:19:15;15.20;1.00
296;DHT22;132;48.770;9.200;2023-10-09T02:22:21;15.20;1.00
296;DHT22;132;48.770;9.200;2023-10-09T02:25:12;15.20;1.00
296;DHT22;132;48.770;9.200;2023-10-09T02:27:59;15.20;1.00
296;DHT22;132;48.770;9.200;2023-10-09T02:30:45;15.30;1.00
296;DHT22;132;48.770;9.200;2023-10-09T02:33:33;15.20;1.00
296;DHT22;132;48.770;9.200;2023-10-09T02:36:22;15.20;1.00
296;DHT22;132;48.770;9.200;2023-10-09T02:39:10;15.20;1.00
296;DHT22;132;48.770;9.200;2023-10-09T02:42:09;15.20;1.00
296;DHT22;132;48.770;9.200;2023-10-09T02:44:59;15.30;1.00
296;DHT22;132;48.770;9.200;2023-10-09T02:47:46;15.30;1.00
296;DHT22;132;48.770;9.200;2023-10-09T02:50:35;15.30;1.00
296;DHT22;132;48.770;9.200;2023-10-09T02:53:24;15.20;1.00
296;DHT22;132;48.770;9.200;2023-10-09T02:56:16;15.20;1.00
296;DHT22;132;48.770;9.200;2023-10-09T02:59:07;15.20;1.00
296;DHT22;132;48.770;9.200;2023-10-09T03:01:54;15.10;1.00
296;DHT22;132;48.770;9.200;2023-10-09T03:04:40;15.20;1.00
296;DHT22;132;48.770;9.200;2023-10-09T03:07:27;15.20;1.00
296;DHT22;132;48.770;9.200;2023-10-09T03:10:15;15.20;1.00
296;DHT22;132;48.770;9.200;2023-10-09T03:13:02;15.30;1.00
296;DHT22;132;48.770;9.200;2023-10-09T03:15:51;15.30;1.00
296;DHT22;132;48.770;9.200;2023-10-09T03:18:38;15.30;1.00
296;DHT22;132;48.770;9.200;2023-10-09T03:21:24;15.30;1.00
296;DHT22;132;48.770;9.200;2023-10-09T03:24:11;15.30;1.00
296;DHT22;132;48.770;9.200;2023-10-09T03:26:58;15.30;1.00
296;DHT22;132;48.770;9.200;2023-10-09T03:29:44;15.50;1.00
296;DHT22;132;48.770;9.200;2023-10-09T03:32:36;15.40;1.00
296;DHT22;132;48.770;9.200;2023-10-09T03:35:22;15.50;1.00
296;DHT22;132;48.770;9.200;2023-10-09T03:38:13;15.40;1.00
296;DHT22;132;48.770;9.200;2023-10-09T03:41:03;15.50;1.00
296;DHT22;132;48.770;9.200;2023-10-09T03:43:53;15.40;1.00
296;DHT22;132;48.770;9.200;2023-10-09T03:46:43;15.40;1.00
296;DHT22;132;48.770;9.200;2023-10-09T03:49:30;15.40;1.00
296;DHT22;132;48.770;9.200;2023-10-09T03:52:18;15.40;1.00
296;DHT22;132;48.770;9.200;2023-10-09T03:55:05;15.40;1.00
296;DHT22;132;48.770;9.200;2023-10-09T03:57:57;15.40;1.00
296;DHT22;132;48.770;9.200;2023-10-09T04:00:45;15.40;1.00
296;DHT22;132;48.770;9.200;2023-10-09T04:03:32;15.40;1.00
296;DHT22;132;48.770;9.200;2023-10-09T04:06:22;15.40;1.00
296;DHT22;132;48.770;9.200;2023-10-09T04:09:10;15.30;1.00
296;DHT22;132;48.770;9.200;2023-10-09T04:12:03;15.30;1.00
296;DHT22;132;48.770;9.200;2023-10-09T04:14:58;15.40;1.00
296;DHT22;132;48.770;9.200;2023-10-09T04:17:48;15.40;1.00
296;DHT22;132;48.770;9.200;2023-10-09T04:20:37;15.50;1.00
296;DHT22;132;48.770;9.200;2023-10-09T04:23:45;15.50;1.00
296;DHT22;132;48.770;9.200;2023-10-09T04:27:07;15.50;1.00
296;DHT22;132;48.770;9.200;2023-10-09T04:29:54;15.50;1.00
296;DHT22;132;48.770;9.200;2023-10-09T04:32:42;15.40;1.00
296;DHT22;132;48.770;9.200;2023-10-09T04:35:31;15.40;1.00
296;DHT22;132;48.770;9.200;2023-10-09T04:38:19;15.40;1.00
296;DHT22;132;48.770;9.200;2023-10-09T04:41:06;15.30;1.00
296;DHT22;132;48.770;9.200;2023-10-09T04:43:54;15.30;1.00
296;DHT22;132;48.770;9.200;2023-10-09T04:47:05;15.30;1.00
296;DHT22;132;48.770;9.200;2023-10-09T04:50:10;15.30;1.00
296;DHT22;132;48.770;9.200;2023-10-09T04:53:04;15.30;1.00
296;DHT22;132;48.770;9.200;2023-10-09T04:56:11;15.20;1.00
296;DHT22;132;48.770;9.200;2023-10-09T04:59:02;15.20;1.00
296;DHT22;132;48.770;9.200;2023-10-09T05:01:52;15.20;1.00
296;DHT22;132;48.770;9.200;2023-10-09T05:04:46;15.10;1.00
296;DHT22;132;48.770;9.200;2023-10-09T05:07:37;15.10;1.00
296;DHT22;132;48.770;9.200;2023-10-09T05:10:41;15.10;1.00
296;DHT22;132;48.770;9.200;2023-10-09T05:13:40;15.10;1.00
296;DHT22;132;48.770;9.200;2023-10-09T05:16:28;15.10;1.00
296;DHT22;132;48.770;9.200;2023-10-09T05:19:15;15.10;1.00
296;DHT22;132;48.770;9.200;2023-10-09T05:22:28;15.10;1.00
296;DHT22;132;48.770;9.200;2023-10-09T05:25:24;15.10;1.00
296;DHT22;132;48.770;9.200;2023-10-09T05:28:36;15.10;1.00
296;DHT22;132;48.770;9.200;2023-10-09T05:31:38;15.10;1.00
296;DHT22;132;48.770;9.200;2023-10-09T05:34:43;15.10;1.00
296;DHT22;132;48.770;9.200;2023-10-09T05:37:45;15.10;1.00
296;DHT22;132;48.770;9.200;2023-10-09T05:40:32;15.10;1.00
296;DHT22;132;48.770;9.200;2023-10-09T05:43:19;15.00;1.00
296;DHT22;132;48.770;9.200;2023-10-09T05:46:24;15.00;1.00
296;DHT22;132;48.770;9.200;2023-10-09T05:49:21;15.00;1.00
296;DHT22;132;48.770;9.200;2023-10-09T05:52:11;14.90;1.00
296;DHT22;132;48.770;9.200;2023-10-09T05:55:19;14.90;1.00
296;DHT22;132;48.770;9.200;2023-10-09T05:58:05;14.90;1.00
296;DHT22;132;48.770;9.200;2023-10-09T06:00:55;15.00;1.00
296;DHT22;132;48.770;9.200;2023-10-09T06:04:00;15.00;1.00
296;DHT22;132;48.770;9.200;2023-10-09T06:07:01;15.00;1.00
296;DHT22;132;48.770;9.200;2023-10-09T06:09:58;15.10;1.00
296;DHT22;132;48.770;9.200;2023-10-09T06:12:56;15.10;1.00
296;DHT22;132;48.770;9.200;2023-10-09T06:15:50;15.10;1.00
296;DHT22;132;48.770;9.200;2023-10-09T06:18:36;15.10;1.00
296;DHT22;132;48.770;9.200;2023-10-09T06:21:28;15.10;1.00
296;DHT22;132;48.770;9.200;2023-10-09T06:24:26;15.10;1.00
296;DHT22;132;48.770;9.200;2023-10-09T06:27:20;15.10;1.00
296;DHT22;132;48.770;9.200;2023-10-09T06:30:16;15.20;1.00
296;DHT22;132;48.770;9.200;2023-10-09T06:33:05;15.20;1.00
296;DHT22;132;48.770;9.200;2023-10-09T06:36:12;15.20;1.00
296;DHT22;132;48.770;9.200;2023-10-09T06:39:04;15.40;1.00
296;DHT22;132;48.770;9.200;2023-10-09T06:42:09;15.40;1.00
296;DHT22;132;48.770;9.200;2023-10-09T06:45:15;15.50;1.00
296;DHT22;132;48.770;9.200;2023-10-09T06:48:06;15.70;1.00
296;DHT22;132;48.770;9.200;2023-10-09T06:51:15;15.90;1.00
296;DHT22;132;48.770;9.200;2023-10-09T06:54:20;15.80;1.00
296;DHT22;132;48.770;9.200;2023-10-09T06:57:11;15.90;1.00
296;DHT22;132;48.770;9.200;2023-10-09T07:00:05;16.00;1.00
296;DHT22;132;48.770;9.200;2023-10-09T07:03:10;16.10;1.00
296;DHT22;132;48.770;9.200;2023-10-09T07:06:06;16.20;1.00
296;DHT22;132;48.770;9.200;2023-10-09T07:09:13;16.30;1.00
296;DHT22;132;48.770;9.200;2023-10-09T07:11:59;16.30;1.00
296;DHT22;132;48.770;9.200;2023-10-09T07:14:46;16.50;1.00
296;DHT22;132;48.770;9.200;2023-10-09T07:17:33;16.60;1.00
296;DHT22;132;48.770;9.200;2023-10-09T07:20:19;16.60;1.00
296;DHT22;132;48.770;9.200;2023-10-09T07:23:25;16.70;1.00
296;DHT22;132;48.770;9.200;2023-10-09T07:26:15;16.80;1.00
296;DHT22;132;48.770;9.200;2023-10-09T07:29:05;16.80;1.00
296;DHT22;132;48.770;9.200;2023-10-09T07:32:08;16.80;1.00
296;DHT22;132;48.770;9.200;2023-10-09T07:34:58;17.00;1.00
296;DHT22;132;48.770;9.200;2023-10-09T07:37:46;16.80;1.00
296;DHT22;132;48.770;9.200;2023-10-09T07:40:41;16.80;1.00
296;DHT22;132;48.770;9.200;2023-10-09T07:43:46;16.80;1.00
296;DHT22;132;48.770;9.200;2023-10-09T07:46:33;17.00;1.00
296;DHT22;132;48.770;9.200;2023-10-09T07:49:59;17.00;1.00
296;DHT22;132;48.770;9.200;2023-10-09T07:52:46;17.10;1.00
296;DHT22;132;48.770;9.200;2023-10-09T07:55:32;17.30;1.00
296;DHT22;132;48.770;9.200;2023-10-09T07:58:25;17.50;1.00
296;DHT22;132;48.770;9.200;2023-10-09T08:01:16;17.60;1.00
296;DHT22;132;48.770;9.200;2023-10-09T08:04:02;17.70;1.00
296;DHT22;132;48.770;9.200;2023-10-09T08:06:57;17.80;1.00
296;DHT22;132;48.770;9.200;2023-10-09T08:09:45;18.00;1.00
296;DHT22;132;48.770;9.200;2023-10-09T08:12:33;18.20;1.00
296;DHT22;132;48.770;9.200;2023-10-09T08:15:44;18.30;1.00
296;DHT22;132;48.770;9.200;2023-10-09T08:18:39;18.50;1.00
296;DHT22;132;48.770;9.200;2023-10-09T08:21:31;18.60;1.00
296;DHT22;132;48.770;9.200;2023-10-09T08:24:50;18.80;1.00
296;DHT22;132;48.770;9.200;2023-10-09T08:27:43;19.00;1.00
296;DHT22;132;48.770;9.200;2023-10-09T08:30:41;19.20;1.00
296;DHT22;132;48.770;9.200;2023-10-09T08:33:35;19.30;1.00
296;DHT22;132;48.770;9.200;2023-10-09T08:36:28;19.50;1.00
296;DHT22;132;48.770;9.200;2023-10-09T08:39:22;19.60;1.00
296;DHT22;132;48.770;9.200;2023-10-09T08:42:12;19.80;1.00
296;DHT22;132;48.770;9.200;2023-10-09T08:44:58;20.00;1.00
296;DHT22;132;48.770;9.200;2023-10-09T08:47:46;20.10;1.00
296;DHT22;132;48.770;9.200;2023-10-09T08:50:36;20.10;1.00
296;DHT22;132;48.770;9.200;2023-10-09T08:53:24;20.10;1.00
296;DHT22;132;48.770;9.200;2023-10-09T08:56:11;20.00;1.00
296;DHT22;132;48.770;9.200;2023-10-09T08:58:59;19.90;1.00
296;DHT22;132;48.770;9.200;2023-10-09T09:01:49;19.90;1.00
296;DHT22;132;48.770;9.200;2023-10-09T09:04:39;19.90;1.00
296;DHT22;132;48.770;9.200;2023-10-09T09:07:29;19.90;1.00
296;DHT22;132;48.770;9.200;2023-10-09T09:10:17;19.90;1.00
296;DHT22;132;48.770;9.200;2023-10-09T09:13:21;20.00;1.00
296;DHT22;132;48.770;9.200;2023-10-09T09:16:34;20.00;1.00
296;DHT22;132;48.770;9.200;2023-10-09T09:19:31;20.10;1.00
296;DHT22;132;48.770;9.200;2023-10-09T09:22:18;20.20;1.00
296;DHT22;132;48.770;9.200;2023-10-09T09:25:06;20.10;1.00
296;DHT22;132;48.770;9.200;2023-10-09T09:27:56;20.20;1.00
296;DHT22;132;48.770;9.200;2023-10-09T09:30:43;20.30;1.00
296;DHT22;132;48.770;9.200;2023-10-09T09:33:30;20.40;1.00
296;DHT22;132;48.770;9.200;2023-10-09T09:36:26;20.60;1.00
296;DHT22;132;48.770;9.200;2023-10-09T09:39:15;20.80;1.00
296;DHT22;132;48.770;9.200;2023-10-09T09:42:06;20.90;1.00
296;DHT22;132;48.770;9.200;2023-10-09T09:45:01;20.90;1.00
296;DHT22;132;48.770;9.200;2023-10-09T09:47:49;21.00;1.00
296;DHT22;132;48.770;9.200;2023-10-09T09:50:39;20.90;1.00
296;DHT22;132;48.770;9.200;2023-10-09T09:53:33;21.20;1.00
296;DHT22;132;48.770;9.200;2023-10-09T09:56:24;21.20;1.00
296;DHT22;132;48.770;9.200;2023-10-09T09:59:12;21.20;1.00
296;DHT22;132;48.770;9.200;2023-10-09T10:02:10;21.30;1.00
296;DHT22;132;48.770;9.200;2023-10-09T10:05:06;21.30;1.00
296;DHT22;132;48.770;9.200;2023-10-09T10:07:53;21.40;1.00
296;DHT22;132;48.770;9.200;2023-10-09T10:10:41;21.50;1.00
296;DHT22;132;48.770;9.200;2023-10-09T10:16:28;21.70;1.00
296;DHT22;132;48.770;9.200;2023-10-09T10:19:21;21.70;1.00
296;DHT22;132;48.770;9.200;2023-10-09T10:22:23;21.70;1.00
296;DHT22;132;48.770;9.200;2023-10-09T10:28:26;21.90;1.00
296;DHT22;132;48.770;9.200;2023-10-09T10:31:51;22.10;1.00
296;DHT22;132;48.770;9.200;2023-10-09T10:34:58;22.30;1.00
296;DHT22;132;48.770;9.200;2023-10-09T10:37:52;22.50;1.00
296;DHT22;132;48.770;9.200;2023-10-09T10:40:50;22.60;1.00
296;DHT22;132;48.770;9.200;2023-10-09T10:43:51;22.70;1.00
296;DHT22;132;48.770;9.200;2023-10-09T10:46:41;22.70;1.00
296;DHT22;132;48.770;9.200;2023-10-09T10:49:31;22.70;1.00
296;DHT22;132;48.770;9.200;2023-10-09T10:52:27;22.60;1.00
296;DHT22;132;48.770;9.200;2023-10-09T10:55:28;22.50;1.00
296;DHT22;132;48.770;9.200;2023-10-09T10:58:17;22.50;1.00
296;DHT22;132;48.770;9.200;2023-10-09T11:01:11;22.40;1.00
296;DHT22;132;48.770;9.200;2023-10-09T11:04:11;22.50;1.00
296;DHT22;132;48.770;9.200;2023-10-09T11:07:00;22.50;1.00
296;DHT22;132;48.770;9.200;2023-10-09T11:09:55;22.50;1.00
296;DHT22;132;48.770;9.200;2023-10-09T11:13:04;22.50;1.00
296;DHT22;132;48.770;9.200;2023-10-09T11:15:57;22.60;1.00
296;DHT22;132;48.770;9.200;2023-10-09T11:19:01;22.80;1.00
296;DHT22;132;48.770;9.200;2023-10-09T11:22:00;23.00;1.00
296;DHT22;132;48.770;9.200;2023-10-09T11:24:53;23.30;1.00
296;DHT22;132;48.770;9.200;2023-10-09T11:27:57;23.50;1.00
296;DHT22;132;48.770;9.200;2023-10-09T11:31:13;23.80;1.00
296;DHT22;132;48.770;9.200;2023-10-09T11:34:02;23.80;1.00
296;DHT22;132;48.770;9.200;2023-10-09T11:36:49;23.80;1.00
296;DHT22;132;48.770;9.200;2023-10-09T11:39:42;23.60;1.00
296;DHT22;132;48.770;9.200;2023-10-09T11:42:38;23.50;1.00
296;DHT22;132;48.770;9.200;2023-10-09T11:45:34;23.40;1.00
296;DHT22;132;48.770;9.200;2023-10-09T11:48:24;23.30;1.00
296;DHT22;132;48.770;9.200;2023-10-09T11:51:20;23.20;1.00
296;DHT22;132;48.770;9.200;2023-10-09T11:54:07;23.10;1.00
296;DHT22;132;48.770;9.200;2023-10-09T11:56:55;23.00;1.00
296;DHT22;132;48.770;9.200;2023-10-09T11:59:41;22.80;1.00
296;DHT22;132;48.770;9.200;2023-10-09T12:02:29;22.80;1.00
296;DHT22;132;48.770;9.200;2023-10-09T12:05:17;22.70;1.00
296;DHT22;132;48.770;9.200;2023-10-09T12:08:05;22.70;1.00
296;DHT22;132;48.770;9.200;2023-10-09T12:10:55;22.70;1.00
296;DHT22;132;48.770;9.200;2023-10-09T12:13:41;22.60;1.00
296;DHT22;132;48.770;9.200;2023-10-09T12:16:28;22.60;1.00
296;DHT22;132;48.770;9.200;2023-10-09T12:19:17;22.70;1.00
296;DHT22;132;48.770;9.200;2023-10-09T12:22:07;22.80;1.00
296;DHT22;132;48.770;9.200;2023-10-09T12:24:57;23.10;1.00
296;DHT22;132;48.770;9.200;2023-10-09T12:27:43;23.40;1.00
296;DHT22;132;48.770;9.200;2023-10-09T12:30:30;23.80;1.00
296;DHT22;132;48.770;9.200;2023-10-09T12:33:18;24.10;1.00
296;DHT22;132;48.770;9.200;2023-10-09T12:36:05;24.60;1.00
296;DHT22;132;48.770;9.200;2023-10-09T12:38:52;25.10;1.00
296;DHT22;132;48.770;9.200;2023-10-09T12:41:45;25.60;1.00
296;DHT22;132;48.770;9.200;2023-10-09T12:44:35;26.00;1.00
296;DHT22;132;48.770;9.200;2023-10-09T12:47:28;26.20;1.00
296;DHT22;132;48.770;9.200;2023-10-09T12:50:16;26.20;1.00
296;DHT22;132;48.770;9.200;2023-10-09T12:53:13;26.10;1.00
296;DHT22;132;48.770;9.200;2023-10-09T12:56:04;26.00;1.00
296;DHT22;132;48.770;9.200;2023-10-09T12:58:51;25.90;1.00
296;DHT22;132;48.770;9.200;2023-10-09T13:01:43;25.80;1.00
296;DHT22;132;48.770;9.200;2023-10-09T13:04:30;25.70;1.00
296;DHT22;132;48.770;9.200;2023-10-09T13:07:18;25.50;1.00
296;DHT22;132;48.770;9.200;2023-10-09T13:10:08;25.30;1.00
296;DHT22;132;48.770;9.200;2023-10-09T13:12:55;25.20;1.00
296;DHT22;132;48.770;9.200;2023-10-09T13:15:42;25.20;1.00
296;DHT22;132;48.770;9.200;2023-10-09T13:18:29;25.40;1.00
296;DHT22;132;48.770;9.200;2023-10-09T13:21:20;25.40;1.00
296;DHT22;132;48.770;9.200;2023-10-09T13:24:07;25.40;1.00
296;DHT22;132;48.770;9.200;2023-10-09T13:27:02;25.40;1.00
296;DHT22;132;48.770;9.200;2023-10-09T13:29:50;25.40;1.00
296;DHT22;132;48.770;9.200;2023-10-09T13:32:38;25.60;1.00
296;DHT22;132;48.770;9.200;2023-10-09T13:35:25;25.90;1.00
296;DHT22;132;48.770;9.200;2023-10-09T13:38:24;26.00;1.00
296;DHT22;132;48.770;9.200;2023-10-09T13:41:10;26.00;1.00
296;DHT22;132;48.770;9.200;2023-10-09T13:43:59;26.10;1.00
296;DHT22;132;48.770;9.200;2023-10-09T13:46:45;26.10;1.00
296;DHT22;132;48.770;9.200;2023-10-09T13:49:32;26.20;1.00
296;DHT22;132;48.770;9.200;2023-10-09T13:52:19;26.30;1.00
296;DHT22;132;48.770;9.200;2023-10-09T13:55:08;26.40;1.00
296;DHT22;132;48.770;9.200;2023-10-09T13:58:03;26.40;1.00
296;DHT22;132;48.770;9.200;2023-10-09T14:00:56;26.50;1.00
296;DHT22;132;48.770;9.200;2023-10-09T14:03:44;26.60;1.00
296;DHT22;132;48.770;9.200;2023-10-09T14:06:35;26.50;1.00
296;DHT22;132;48.770;9.200;2023-10-09T14:09:24;26.40;1.00
296;DHT22;132;48.770;9.200;2023-10-09T14:12:14;26.40;1.00
296;DHT22;132;48.770;9.200;2023-10-09T14:15:01;26.30;1.00
296;DHT22;132;48.770;9.200;2023-10-09T14:17:50;26.30;1.00
296;DHT22;132;48.770;9.200;2023-10-09T14:20:42;26.20;1.00
296;DHT22;132;48.770;9.200;2023-10-09T14:23:29;26.10;1.00
296;DHT22;132;48.770;9.200;2023-10-09T14:26:18;25.90;1.00
296;DHT22;132;48.770;9.200;2023-10-09T14:29:05;25.80;1.00
296;DHT22;132;48.770;9.200;2023-10-09T14:31:53;25.70;1.00
296;DHT22;132;48.770;9.200;2023-10-09T14:34:46;25.60;1.00
296;DHT22;132;48.770;9.200;2023-10-09T14:37:36;26.80;1.00
296;DHT22;132;48.770;9.200;2023-10-09T14:40:22;25.40;1.00
296;DHT22;132;48.770;9.200;2023-10-09T14:43:16;25.40;1.00
296;DHT22;132;48.770;9.200;2023-10-09T14:46:05;25.30;1.00
296;DHT22;132;48.770;9.200;2023-10-09T14:48:57;25.30;1.00
296;DHT22;132;48.770;9.200;2023-10-09T14:51:43;25.20;1.00
296;DHT22;132;48.770;9.200;2023-10-09T14:54:30;25.10;1.00
296;DHT22;132;48.770;9.200;2023-10-09T14:57:17;25.00;1.00
296;DHT22;132;48.770;9.200;2023-10-09T15:00:05;24.90;1.00
296;DHT22;132;48.770;9.200;2023-10-09T15:03:00;24.90;1.00
296;DHT22;132;48.770;9.200;2023-10-09T15:05:47;24.80;1.00
296;DHT22;132;48.770;9.200;2023-10-09T15:08:35;24.80;1.00
296;DHT22;132;48.770;9.200;2023-10-09T15:11:22;24.80;1.00
296;DHT22;132;48.770;9.200;2023-10-09T15:14:10;24.70;1.00
296;DHT22;132;48.770;9.200;2023-10-09T15:16:57;24.60;1.00
296;DHT22;132;48.770;9.200;2023-10-09T15:19:44;24.50;1.00
296;DHT22;132;48.770;9.200;2023-10-09T15:22:31;24.40;1.00
296;DHT22;132;48.770;9.200;2023-10-09T15:25:23;24.30;1.00
296;DHT22;132;48.770;9.200;2023-10-09T15:28:09;24.20;1.00
296;DHT22;132;48.770;9.200;2023-10-09T15:30:56;24.00;1.00
296;DHT22;132;48.770;9.200;2023-10-09T15:33:43;23.90;1.00
296;DHT22;132;48.770;9.200;2023-10-09T15:36:29;23.80;1.00
296;DHT22;132;48.770;9.200;2023-10-09T15:39:18;23.60;1.00
296;DHT22;132;48.770;9.200;2023-10-09T15:42:05;23.50;1.00
296;DHT22;132;48.770;9.200;2023-10-09T15:44:55;23.30;1.00
296;DHT22;132;48.770;9.200;2023-10-09T15:47:41;23.20;1.00
296;DHT22;132;48.770;9.200;2023-10-09T15:50:29;23.10;1.00
296;DHT22;132;48.770;9.200;2023-10-09T15:53:15;23.10;1.00
296;DHT22;132;48.770;9.200;2023-10-09T15:56:03;22.90;1.00
296;DHT22;132;48.770;9.200;2023-10-09T15:58:50;22.70;1.00
296;DHT22;132;48.770;9.200;2023-10-09T16:01:40;22.70;1.00
296;DHT22;132;48.770;9.200;2023-10-09T16:04:29;22.50;1.00
296;DHT22;132;48.770;9.200;2023-10-09T16:07:20;22.40;1.00
296;DHT22;132;48.770;9.200;2023-10-09T16:10:10;22.20;1.00
296;DHT22;132;48.770;9.200;2023-10-09T16:12:57;22.10;1.00
296;DHT22;132;48.770;9.200;2023-10-09T16:15:44;22.00;1.00
296;DHT22;132;48.770;9.200;2023-10-09T16:18:31;21.90;1.00
296;DHT22;132;48.770;9.200;2023-10-09T16:21:18;21.80;1.00
296;DHT22;132;48.770;9.200;2023-10-09T16:24:07;21.70;1.00
296;DHT22;132;48.770;9.200;2023-10-09T16:26:55;21.60;1.00
296;DHT22;132;48.770;9.200;2023-10-09T16:29:45;21.60;1.00
296;DHT22;132;48.770;9.200;2023-10-09T16:32:36;21.50;1.00
296;DHT22;132;48.770;9.200;2023-10-09T16:35:24;21.40;1.00
296;DHT22;132;48.770;9.200;2023-10-09T16:38:11;21.30;1.00
296;DHT22;132;48.770;9.200;2023-10-09T16:41:00;21.20;1.00
296;DHT22;132;48.770;9.200;2023-10-09T16:43:54;21.10;1.00
296;DHT22;132;48.770;9.200;2023-10-09T16:46:43;21.10;1.00
296;DHT22;132;48.770;9.200;2023-10-09T16:49:32;20.90;1.00
296;DHT22;132;48.770;9.200;2023-10-09T16:52:18;20.80;1.00
296;DHT22;132;48.770;9.200;2023-10-09T16:55:06;20.70;1.00
296;DHT22;132;48.770;9.200;2023-10-09T16:57:55;20.60;1.00
296;DHT22;132;48.770;9.200;2023-10-09T17:00:43;20.50;1.00
296;DHT22;132;48.770;9.200;2023-10-09T17:03:32;20.50;1.00
296;DHT22;132;48.770;9.200;2023-10-09T17:06:21;20.40;1.00
296;DHT22;132;48.770;9.200;2023-10-09T17:09:08;20.30;1.00
296;DHT22;132;48.770;9.200;2023-10-09T17:11:54;20.20;1.00
296;DHT22;132;48.770;9.200;2023-10-09T17:14:44;20.20;1.00
296;DHT22;132;48.770;9.200;2023-10-09T17:17:31;20.30;1.00
296;DHT22;132;48.770;9.200;2023-10-09T17:20:18;20.30;1.00
296;DHT22;132;48.770;9.200;2023-10-09T17:23:05;20.20;1.00
296;DHT22;132;48.770;9.200;2023-10-09T17:25:51;20.20;1.00
296;DHT22;132;48.770;9.200;2023-10-09T17:28:44;20.10;1.00
296;DHT22;132;48.770;9.200;2023-10-09T17:31:31;20.00;1.00
296;DHT22;132;48.770;9.200;2023-10-09T17:34:20;19.90;1.00
296;DHT22;132;48.770;9.200;2023-10-09T17:37:09;19.80;1.00
296;DHT22;132;48.770;9.200;2023-10-09T17:39:56;19.70;1.00
296;DHT22;132;48.770;9.200;2023-10-09T17:42:43;19.60;1.00
296;DHT22;132;48.770;9.200;2023-10-09T17:45:30;19.60;1.00
296;DHT22;132;48.770;9.200;2023-10-09T17:48:21;19.50;1.00
296;DHT22;132;48.770;9.200;2023-10-09T17:51:08;19.50;1.00
296;DHT22;132;48.770;9.200;2023-10-09T17:53:57;19.50;1.00
296;DHT22;132;48.770;9.200;2023-10-09T17:56:44;19.50;1.00
296;DHT22;132;48.770;9.200;2023-10-09T17:59:31;19.60;1.00
296;DHT22;132;48.770;9.200;2023-10-09T18:02:19;19.90;1.00
296;DHT22;132;48.770;9.200;2023-10-09T18:05:06;20.10;1.00
296;DHT22;132;48.770;9.200;2023-10-09T18:07:57;20.20;1.00
296;DHT22;132;48.770;9.200;2023-10-09T18:10:47;20.20;1.00
296;DHT22;132;48.770;9.200;2023-10-09T18:13:36;20.10;1.00
296;DHT22;132;48.770;9.200;2023-10-09T18:16:23;20.00;1.00
296;DHT22;132;48.770;9.200;2023-10-09T18:19:09;20.00;1.00
296;DHT22;132;48.770;9.200;2023-10-09T18:22:00;19.90;1.00
296;DHT22;132;48.770;9.200;2023-10-09T18:24:47;19.90;1.00
296;DHT22;132;48.770;9.200;2023-10-09T18:27:34;19.90;1.00
296;DHT22;132;48.770;9.200;2023-10-09T18:30:20;19.90;1.00
296;DHT22;132;48.770;9.200;2023-10-09T18:33:12;20.00;1.00
296;DHT22;132;48.770;9.200;2023-10-09T18:35:59;20.10;1.00
296;DHT22;132;48.770;9.200;2023-10-09T18:38:53;20.20;1.00
296;DHT22;132;48.770;9.200;2023-10-09T18:41:42;20.40;1.00
296;DHT22;132;48.770;9.200;2023-10-09T18:44:30;20.60;1.00
296;DHT22;132;48.770;9.200;2023-10-09T18:47:17;20.80;1.00
296;DHT22;132;48.770;9.200;2023-10-09T18:50:08;20.80;1.00
296;DHT22;132;48.770;9.200;2023-10-09T18:52:57;20.90;1.00
296;DHT22;132;48.770;9.200;2023-10-09T18:55:48;20.90;1.00
296;DHT22;132;48.770;9.200;2023-10-09T18:58:35;20.90;1.00
296;DHT22;132;48.770;9.200;2023-10-09T19:01:21;20.90;1.00
296;DHT22;132;48.770;9.200;2023-10-09T19:04:09;20.90;1.00
296;DHT22;132;48.770;9.200;2023-10-09T19:06:55;20.90;1.00
296;DHT22;132;48.770;9.200;2023-10-09T19:09:44;20.90;1.00
296;DHT22;132;48.770;9.200;2023-10-09T19:12:31;20.80;1.00
296;DHT22;132;48.770;9.200;2023-10-09T19:15:18;20.80;1.00
296;DHT22;132;48.770;9.200;2023-10-09T19:18:05;20.80;1.00
296;DHT22;132;48.770;9.200;2023-10-09T19:20:58;20.70;1.00
296;DHT22;132;48.770;9.200;2023-10-09T19:23:50;20.70;1.00
296;DHT22;132;48.770;9.200;2023-10-09T19:26:38;20.70;1.00
296;DHT22;132;48.770;9.200;2023-10-09T19:29:25;20.70;1.00
296;DHT22;132;48.770;9.200;2023-10-09T19:32:12;20.70;1.00
296;DHT22;132;48.770;9.200;2023-10-09T19:35:00;20.70;1.00
296;DHT22;132;48.770;9.200;2023-10-09T19:37:49;20.70;1.00
296;DHT22;132;48.770;9.200;2023-10-09T19:40:36;20.70;1.00
296;DHT22;132;48.770;9.200;2023-10-09T19:43:23;20.50;1.00